ADDS TAF Board (Experimental) INFO Settings

IDs: Format: Expanded Condensed

KDCA - Washington/National, VA, US

Issued at 0839 UTC 27 Apr 2015
Updated at: 0856 UTC 27 Apr 2015
Time0852Z 27/09Z 27/10Z 27/11Z 27/12Z 27/13Z 27/14Z 27/15Z 27/16Z 27/17Z 27/18Z 27/19Z 27/20Z 27/21Z
Type OBS PRVL PRVL PRVL PRVL PRVL PRVL PRVL PRVL PRVL PRVL PRVL PRVL PRVL
VIS 10 >6 >6 >6 >6 >6 >6 >6 >6 >6 >6 >6 >6 >6
CIG 250 -- -- -- -- -- -- -- -- 60 60 60 60 60
Cover BKN SCT SCT SCT SCT SCT SCT SCT SCT BKN BKN BKN BKN BKN
FltCat VFR VFR VFR VFR VFR VFR VFR VFR VFR VFR VFR VFR VFR VFR
WX -- -- -- -- -- -- -- -- -- -- -- -- -- --
WDir 350 330 330 330 330 330 310 310 310 310 310 310 310 310
WSpd 5 6 6 6 6 6 10 10 10 12 12 12 12 12
WGst -- -- -- -- -- -- -- -- -- 20 20 20 20 20
R01/19
XWnd 0 3 3 3 3 3 7 7 7 8 8 8 8 8
XGst -- -- -- -- -- -- -- -- -- 14 14 14 14 14
HWnd 5 5 5 5 5 5 7 7 7 8 8 8 8 8
HGst -- -- -- -- -- -- -- -- -- 14 14 14 14 14
R04/22
XWnd 3 5 5 5 5 5 10 10 10 12 12 12 12 12
XGst -- -- -- -- -- -- -- -- -- 19 19 19 19 19
HWnd 4 3 3 3 3 3 2 2 2 3 3 3 3 3
HGst -- -- -- -- -- -- -- -- -- 5 5 5 5 5
R15/33
XWnd 2 1 1 1 1 1 -2 -2 -2 -3 -3 -3 -3 -3
XGst -- -- -- -- -- -- -- -- -- -4 -4 -4 -4 -4
HWnd -4 -6 -6 -6 -6 -6 -10 -10 -10 -12 -12 -12 -12 -12
HGst -- -- -- -- -- -- -- -- -- -19 -19 -19 -19 -19

NOTE: TEMPO conditions in [brackets]. Keep in mind TEMPO conditions might be better (lower impact) than prevailing conditions.

Raw TAF
KDCA 270839Z 2709/2806 33006KT P6SM SCT060
  FM271400 31010KT P6SM SCT060
  FM271700 31012G20KT P6SM BKN060
  FM280300 32009KT P6SM SCT060


Raw METAR
KDCA 270852Z 35005KT 10SM FEW090 SCT130 BKN250 09/00 A2976 RMK AO2 SLP076 T00940000 53003
KDCA 270752Z 36006KT 10SM SCT090 SCT250 10/01 A2975 RMK AO2 SLP074 T01000006
KDCA 270652Z 03006KT 10SM FEW090 SCT250 11/00 A2975 RMK AO2 SLP074 T01110000
KDCA 270552Z 02014KT 10SM FEW090 SCT250 12/00 A2975 RMK AO2 SLP072 T01220000 10167 20100 53004

METAR Board
Radar Display
Forecast Discussion

TAF Board Legend

Potential Impact
Threat None Slight Moderate High
Visibility (sm) ≥5.1 5.1>X≥3 3>X≥1 <1
Ceiling (100 ft) ≥30.1 30.1>X≥10 10>X≥5 <5
Wind Speed (kt) <10 10≤X<20 20≤X<30 ≥30
Wind Gust (kt) <15 15≤X<25 25≤X<35 ≥35
Weather No Wx Reported VCTS,-TS,-FZRA,SN TS,FZRA +TS,+FZRA,+SN